createdAt,value
2019-02-28T00:02:37.733Z,98250.50
2019-02-28T00:06:44.060Z,98251.87
2019-02-28T00:10:49.223Z,98248.52
2019-02-28T00:14:55.070Z,98245.50
2019-02-28T00:18:59.959Z,98242.09
2019-02-28T00:23:04.920Z,98237.39
2019-02-28T00:27:09.817Z,98239.52
2019-02-28T00:31:15.430Z,98228.31
2019-02-28T00:35:20.367Z,98230.98
2019-02-28T00:39:25.253Z,98217.27
2019-02-28T00:43:30.386Z,98210.80
2019-02-28T00:47:35.274Z,98210.47
2019-02-28T00:51:40.438Z,98197.58
2019-02-28T00:55:46.224Z,98196.38
2019-02-28T00:59:51.893Z,98193.73
2019-02-28T01:03:57.976Z,98190.77
2019-02-28T01:08:03.463Z,98197.68
2019-02-28T01:12:08.357Z,98193.31
2019-02-28T01:16:16.102Z,98187.19
2019-02-28T01:20:19.824Z,98187.06
2019-02-28T01:24:24.709Z,98184.73
2019-02-28T01:28:29.613Z,98182.37
2019-02-28T01:32:34.504Z,98178.06
2019-02-28T01:36:39.405Z,98166.13
2019-02-28T01:40:44.298Z,98155.02
2019-02-28T01:44:49.185Z,98152.19
2019-02-28T01:48:54.556Z,98144.80
2019-02-28T01:53:00.058Z,98148.71
2019-02-28T01:57:04.957Z,98143.08
2019-02-28T02:01:09.846Z,98141.27
2019-02-28T02:05:17.069Z,98136.95
2019-02-28T02:09:21.971Z,98133.11
2019-02-28T02:13:26.863Z,98130.55
2019-02-28T02:17:32.268Z,98128.89
2019-02-28T02:21:38.357Z,98126.26
2019-02-28T02:25:43.249Z,98118.85
2019-02-28T02:29:48.140Z,98111.03
2019-02-28T02:33:53.050Z,98095.53
2019-02-28T02:37:57.941Z,98089.55
2019-02-28T02:42:10.066Z,98082.73
2019-02-28T02:46:09.438Z,98083.30
2019-02-28T02:50:15.264Z,98077.02
2019-02-28T02:54:20.356Z,98072.03
2019-02-28T02:58:27.807Z,98080.79
2019-02-28T03:02:33.265Z,98070.13
2019-02-28T03:06:38.441Z,98070.80
2019-02-28T03:10:43.330Z,98071.75
2019-02-28T03:14:49.093Z,98062.27
2019-02-28T03:18:58.220Z,98061.91
2019-02-28T03:23:03.182Z,98052.84
2019-02-28T03:27:08.279Z,98048.59
2019-02-28T03:31:15.431Z,98047.81
2019-02-28T03:35:19.772Z,98041.52
2019-02-28T03:39:25.784Z,98038.58
2019-02-28T03:43:30.847Z,98033.09
2019-02-28T03:47:35.754Z,98041.83
2019-02-28T03:51:40.666Z,98038.05
2019-02-28T03:55:45.528Z,98039.86
2019-02-28T03:59:55.373Z,98032.59
2019-02-28T04:03:57.089Z,98021.86
2019-02-28T04:08:01.999Z,98022.05
2019-02-28T04:12:08.680Z,98021.86
2019-02-28T04:16:13.477Z,98022.41
2019-02-28T04:20:18.540Z,98014.75
2019-02-28T04:24:23.409Z,98017.72
2019-02-28T04:28:28.304Z,98018.97
2019-02-28T04:32:33.200Z,98017.23
2019-02-28T04:36:38.095Z,98015.51
2019-02-28T04:40:43.951Z,98019.17
2019-02-28T04:44:49.256Z,98013.36
2019-02-28T04:48:55.446Z,98014.70
2019-02-28T04:53:00.340Z,98014.27
2019-02-28T04:57:05.234Z,98019.45
2019-02-28T05:01:12.292Z,98012.98
2019-02-28T05:05:16.728Z,98007.33
2019-02-28T05:09:21.893Z,98006.98
2019-02-28T05:13:26.795Z,97993.14
2019-02-28T05:17:31.703Z,97995.66
2019-02-28T05:21:36.583Z,98003.05
2019-02-28T05:25:41.480Z,98000.41
2019-02-28T05:29:46.377Z,97995.28
2019-02-28T05:33:51.286Z,98003.06
2019-02-28T05:37:56.172Z,98005.31
2019-02-28T05:42:01.059Z,97999.77
2019-02-28T05:46:05.956Z,98000.25
2019-02-28T05:50:15.224Z,98001.11
2019-02-28T05:54:18.632Z,98004.12
2019-02-28T05:58:23.491Z,98003.30
2019-02-28T06:02:28.380Z,98009.30
2019-02-28T06:06:33.277Z,98014.85
2019-02-28T06:10:38.180Z,98021.33
2019-02-28T06:14:43.081Z,98017.49
2019-02-28T06:18:47.981Z,98019.20
2019-02-28T06:22:52.870Z,98015.28
2019-02-28T06:26:57.774Z,98014.70
2019-02-28T06:31:02.687Z,98022.36
2019-02-28T06:35:07.584Z,98022.47
2019-02-28T06:39:12.491Z,98023.28
2019-02-28T06:43:18.737Z,98018.91
2019-02-28T06:47:23.985Z,98016.91
2019-02-28T06:51:28.893Z,98014.02
2019-02-28T06:55:33.838Z,98017.16
2019-02-28T06:59:39.159Z,98022.19
2019-02-28T07:03:53.331Z,98023.91
2019-02-28T07:07:51.139Z,98032.95
2019-02-28T07:11:56.039Z,98024.02
2019-02-28T07:16:00.963Z,98026.74
2019-02-28T07:20:11.737Z,98023.48
2019-02-28T07:24:16.644Z,98028.64
2019-02-28T07:28:21.554Z,98026.05
2019-02-28T07:32:26.460Z,98037.35
2019-02-28T07:36:31.369Z,98038.19
2019-02-28T07:40:37.345Z,98029.64
2019-02-28T07:44:42.256Z,98017.81
2019-02-28T07:48:47.174Z,98019.84
2019-02-28T07:52:53.180Z,98026.75
2019-02-28T07:56:59.118Z,98023.77
2019-02-28T08:01:04.024Z,98025.48
2019-02-28T08:05:12.172Z,98022.56
2019-02-28T08:09:28.178Z,98019.03
2019-02-28T08:13:34.643Z,98021.24
2019-02-28T08:17:40.674Z,98035.59
2019-02-28T08:21:50.305Z,98029.91
2019-02-28T08:25:52.961Z,98021.58
2019-02-28T08:29:57.866Z,98024.55
2019-02-28T08:34:02.771Z,98021.82
2019-02-28T08:38:07.689Z,98020.88
2019-02-28T08:42:12.599Z,98014.27
2019-02-28T08:46:17.516Z,98018.56
2019-02-28T08:50:25.483Z,98020.19
2019-02-28T08:54:30.385Z,98013.00
2019-02-28T08:58:37.592Z,98015.92
2019-02-28T09:02:42.797Z,98018.88
2019-02-28T09:06:47.707Z,98020.02
2019-02-28T09:10:52.622Z,98022.97
2019-02-28T09:14:57.526Z,98011.98
2019-02-28T09:19:02.434Z,98012.35
2019-02-28T09:23:07.422Z,98013.16
2019-02-28T09:27:12.364Z,98017.88
2019-02-28T09:31:17.247Z,98017.33
2019-02-28T09:35:22.176Z,98019.87
2019-02-28T09:39:27.089Z,98004.16
2019-02-28T09:43:32.010Z,98005.45
2019-02-28T09:47:36.918Z,97992.38
2019-02-28T09:51:42.518Z,98006.35
2019-02-28T09:55:47.496Z,98006.91
2019-02-28T09:59:52.411Z,98008.34
2019-02-28T10:03:57.326Z,98012.83
2019-02-28T10:08:03.113Z,98005.31
2019-02-28T10:12:08.839Z,97995.12
2019-02-28T10:16:16.774Z,98007.56
2019-02-28T10:20:27.185Z,98008.77
2019-02-28T10:24:31.440Z,98000.80
2019-02-28T10:28:37.168Z,97985.83
2019-02-28T10:32:43.329Z,97977.52
2019-02-28T10:36:48.937Z,97991.86
2019-02-28T10:40:53.863Z,97984.56
2019-02-28T10:44:58.787Z,97980.91
2019-02-28T10:49:03.694Z,97968.41
2019-02-28T10:53:08.610Z,97965.94
2019-02-28T10:57:13.587Z,97972.86
2019-02-28T11:01:18.504Z,97967.26
2019-02-28T11:05:34.280Z,97969.71
2019-02-28T11:09:39.265Z,97959.94
2019-02-28T11:13:44.951Z,97972.02
2019-02-28T11:17:49.864Z,97968.11
2019-02-28T11:21:54.761Z,97982.39
2019-02-28T11:26:01.716Z,97978.61
2019-02-28T11:30:10.143Z,97971.06
2019-02-28T11:34:15.970Z,97961.28
2019-02-28T11:38:21.725Z,97958.00
2019-02-28T11:42:29.018Z,97962.41
2019-02-28T11:46:36.642Z,97967.22
2019-02-28T11:50:44.167Z,97970.33
2019-02-28T11:54:47.971Z,97955.63
2019-02-28T11:58:52.903Z,97955.63
2019-02-28T12:03:00.756Z,97927.52
2019-02-28T12:07:04.636Z,97927.52
2019-02-28T12:11:09.615Z,97940.23
2019-02-28T12:15:20.197Z,97929.08
2019-02-28T12:19:25.135Z,97925.27
2019-02-28T12:23:30.016Z,97925.27
2019-02-28T12:27:34.929Z,97915.67
2019-02-28T12:31:39.852Z,97904.78
2019-02-28T12:35:44.760Z,97906.06
2019-02-28T12:39:49.669Z,97897.80
2019-02-28T12:43:54.577Z,97887.45
2019-02-28T12:47:59.486Z,97889.85
2019-02-28T12:52:04.469Z,97893.98
2019-02-28T12:56:11.204Z,97880.72
2019-02-28T13:00:23.486Z,97885.38
2019-02-28T13:04:27.987Z,97881.02
2019-02-28T13:08:32.900Z,97883.10
2019-02-28T13:12:37.986Z,97880.36
2019-02-28T13:16:42.902Z,97875.66
2019-02-28T13:20:47.882Z,97884.67
2019-02-28T13:24:52.777Z,97871.44
2019-02-28T13:28:58.129Z,97869.02
2019-02-28T13:33:03.112Z,97866.91
2019-02-28T13:37:08.111Z,97860.39
2019-02-28T13:41:17.810Z,97854.47
2019-02-28T13:45:23.061Z,97851.56
2019-02-28T13:49:27.641Z,97849.70
2019-02-28T13:53:32.567Z,97846.34
2019-02-28T13:57:40.700Z,97839.25
2019-02-28T14:01:44.105Z,97834.20
2019-02-28T14:05:50.147Z,97835.44
2019-02-28T14:09:58.174Z,97842.62
2019-02-28T14:14:06.260Z,97843.47
2019-02-28T14:18:10.693Z,97837.93
2019-02-28T14:22:15.944Z,97843.31
2019-02-28T14:26:20.982Z,97839.19
2019-02-28T14:30:26.664Z,97834.78
2019-02-28T14:34:31.579Z,97817.50
2019-02-28T14:38:36.552Z,97820.64
2019-02-28T14:42:43.541Z,97812.17
2019-02-28T14:46:49.775Z,97804.84
2019-02-28T14:50:55.644Z,97813.39
2019-02-28T14:55:00.564Z,97817.45
2019-02-28T14:59:05.476Z,97809.05
2019-02-28T15:03:10.455Z,97806.41
2019-02-28T15:07:15.451Z,97795.27
2019-02-28T15:11:20.363Z,97811.86
2019-02-28T15:15:25.542Z,97813.02
2019-02-28T15:19:30.448Z,97808.20
2019-02-28T15:23:35.365Z,97802.75
2019-02-28T15:27:40.273Z,97816.28
2019-02-28T15:31:45.201Z,97813.86
2019-02-28T15:35:50.480Z,97815.20
2019-02-28T15:39:55.550Z,97815.62
2019-02-28T15:44:00.459Z,97820.02
2019-02-28T15:48:05.515Z,97814.65
2019-02-28T15:52:10.495Z,97814.27
2019-02-28T15:56:19.537Z,97804.72
2019-02-28T16:00:32.673Z,97793.27
2019-02-28T16:04:37.583Z,97803.72
2019-02-28T16:08:46.784Z,97792.26
2019-02-28T16:12:49.901Z,97787.38
2019-02-28T16:16:56.786Z,97778.82
2019-02-28T16:21:03.671Z,97791.83
2019-02-28T16:25:14.800Z,97813.21
2019-02-28T16:29:20.617Z,97822.97
2019-02-28T16:33:25.515Z,97839.83
2019-02-28T16:37:32.384Z,97841.22
2019-02-28T16:41:37.633Z,97871.31
2019-02-28T16:45:49.706Z,97876.93
2019-02-28T16:49:54.610Z,97900.65
2019-02-28T16:53:59.522Z,97898.48
2019-02-28T16:58:04.531Z,97906.04
2019-02-28T17:02:09.409Z,97916.52
2019-02-28T17:06:14.395Z,97925.39
2019-02-28T17:10:33.177Z,97925.63
2019-02-28T17:14:38.075Z,97933.38
2019-02-28T17:18:42.978Z,97941.17
2019-02-28T17:22:47.894Z,97942.64
2019-02-28T17:26:54.448Z,97950.51
2019-02-28T17:31:01.005Z,97954.91
2019-02-28T17:35:08.421Z,97962.17
2019-02-28T17:39:14.844Z,97956.28
2019-02-28T17:43:24.126Z,97955.83
2019-02-28T17:47:36.640Z,97951.03
2019-02-28T17:51:45.510Z,97952.87
2019-02-28T17:56:22.965Z,97952.95
2019-02-28T18:00:43.672Z,97948.38
2019-02-28T18:05:07.961Z,97951.52
2019-02-28T18:09:22.042Z,97959.41
2019-02-28T18:13:32.629Z,97964.66
2019-02-28T18:18:02.032Z,97958.25
2019-02-28T18:22:34.613Z,97949.22
2019-02-28T18:27:14.231Z,97939.07
2019-02-28T18:31:22.270Z,97943.31
2019-02-28T18:35:25.741Z,97941.95
2019-02-28T18:39:30.671Z,97945.67
2019-02-28T18:43:35.580Z,97940.77
2019-02-28T18:47:40.761Z,97936.28
2019-02-28T18:51:45.655Z,97935.56
2019-02-28T18:55:50.545Z,97939.95
2019-02-28T18:59:56.522Z,97932.75
2019-02-28T19:04:02.398Z,97920.56
2019-02-28T19:08:07.299Z,97918.06
2019-02-28T19:12:12.219Z,97925.47
2019-02-28T19:16:17.114Z,97914.73
2019-02-28T19:20:22.034Z,97923.56
2019-02-28T19:24:26.930Z,97934.55
2019-02-28T19:28:31.840Z,97943.52
2019-02-28T19:32:36.734Z,97942.41
2019-02-28T19:36:41.717Z,97945.43
2019-02-28T19:40:46.623Z,97944.17
2019-02-28T19:44:51.528Z,97943.63
2019-02-28T19:48:56.610Z,97937.92
2019-02-28T19:53:01.523Z,97927.13
2019-02-28T19:57:06.417Z,97922.28
2019-02-28T20:01:18.756Z,97925.81
2019-02-28T20:05:18.496Z,97922.80
2019-02-28T20:09:23.397Z,97922.20
2019-02-28T20:13:28.342Z,97915.38
2019-02-28T20:17:33.246Z,97909.17
2019-02-28T20:21:38.154Z,97906.03
2019-02-28T20:25:43.139Z,97899.06
2019-02-28T20:29:54.894Z,97895.53
2019-02-28T20:33:54.649Z,97897.29
2019-02-28T20:37:59.561Z,97909.81
2019-02-28T20:42:04.476Z,97904.42
2019-02-28T20:46:10.560Z,97902.53
2019-02-28T20:50:24.311Z,97904.16
2019-02-28T20:54:29.211Z,97890.24
2019-02-28T20:58:34.126Z,97885.79
2019-02-28T21:02:39.047Z,97896.80
2019-02-28T21:06:43.966Z,97888.02
2019-02-28T21:10:49.010Z,97874.59
2019-02-28T21:14:53.914Z,97871.79
2019-02-28T21:18:58.893Z,97876.33
2019-02-28T21:23:03.806Z,97874.35
2019-02-28T21:27:08.721Z,97876.64
2019-02-28T21:31:13.670Z,97879.81
2019-02-28T21:35:18.637Z,97871.55
2019-02-28T21:39:23.619Z,97865.75
2019-02-28T21:43:28.597Z,97866.75
2019-02-28T21:47:33.586Z,97877.97
2019-02-28T21:51:38.497Z,97871.31
2019-02-28T21:55:43.397Z,97869.70
2019-02-28T21:59:48.311Z,97856.40
2019-02-28T22:03:53.224Z,97843.05
2019-02-28T22:07:58.136Z,97826.33
2019-02-28T22:12:03.049Z,97835.34
2019-02-28T22:16:07.967Z,97822.15
2019-02-28T22:20:14.517Z,97819.34
2019-02-28T22:24:19.429Z,97812.17
2019-02-28T22:28:24.339Z,97803.41
2019-02-28T22:32:31.963Z,97797.47
2019-02-28T22:36:38.520Z,97804.88
2019-02-28T22:40:43.416Z,97807.23
2019-02-28T22:44:48.329Z,97808.72
2019-02-28T22:48:53.232Z,97804.59
2019-02-28T22:52:58.151Z,97806.30
2019-02-28T22:57:03.049Z,97800.86
2019-02-28T23:01:14.701Z,97793.46
2019-02-28T23:05:19.825Z,97789.02
2019-02-28T23:09:24.729Z,97788.30
2019-02-28T23:13:29.711Z,97776.31
2019-02-28T23:17:34.619Z,97769.35
2019-02-28T23:21:39.514Z,97769.45
2019-02-28T23:25:44.411Z,97753.73
2019-02-28T23:29:58.113Z,97754.89
2019-02-28T23:34:12.785Z,97745.72
2019-02-28T23:38:17.712Z,97731.91
2019-02-28T23:42:22.602Z,97734.29
2019-02-28T23:46:27.512Z,97724.72
2019-02-28T23:50:32.419Z,97722.20
2019-02-28T23:54:37.326Z,97716.83
2019-02-28T23:58:42.571Z,97722.63
